sensor_id;sensor_type;location;lat;lon;timestamp;P1;durP1;ratioP1;P2;durP2;ratioP2
83245;SDS011;73140;46.754;17.714;2024-02-04T00:01:55;5.25;;;3.55;;
83245;SDS011;73140;46.754;17.714;2024-02-04T00:04:21;5.13;;;3.20;;
83245;SDS011;73140;46.754;17.714;2024-02-04T00:06:50;6.65;;;3.60;;
83245;SDS011;73140;46.754;17.714;2024-02-04T00:09:16;5.30;;;3.45;;
83245;SDS011;73140;46.754;17.714;2024-02-04T00:11:43;5.50;;;3.50;;
83245;SDS011;73140;46.754;17.714;2024-02-04T00:14:10;7.18;;;3.47;;
83245;SDS011;73140;46.754;17.714;2024-02-04T00:16:36;5.82;;;3.90;;
83245;SDS011;73140;46.754;17.714;2024-02-04T00:19:02;6.88;;;4.10;;
83245;SDS011;73140;46.754;17.714;2024-02-04T00:21:28;6.85;;;3.60;;
83245;SDS011;73140;46.754;17.714;2024-02-04T00:23:55;5.85;;;3.70;;
83245;SDS011;73140;46.754;17.714;2024-02-04T00:26:21;6.10;;;3.78;;
83245;SDS011;73140;46.754;17.714;2024-02-04T00:28:47;6.30;;;3.92;;
83245;SDS011;73140;46.754;17.714;2024-02-04T00:31:13;6.20;;;3.95;;
83245;SDS011;73140;46.754;17.714;2024-02-04T00:33:39;6.60;;;3.92;;
83245;SDS011;73140;46.754;17.714;2024-02-04T00:36:05;6.57;;;4.10;;
83245;SDS011;73140;46.754;17.714;2024-02-04T00:38:31;5.25;;;3.42;;
83245;SDS011;73140;46.754;17.714;2024-02-04T00:40:59;6.05;;;3.75;;
83245;SDS011;73140;46.754;17.714;2024-02-04T00:43:25;5.38;;;3.63;;
83245;SDS011;73140;46.754;17.714;2024-02-04T00:45:51;6.07;;;3.83;;
83245;SDS011;73140;46.754;17.714;2024-02-04T00:48:17;5.68;;;3.97;;
83245;SDS011;73140;46.754;17.714;2024-02-04T00:50:43;6.18;;;3.10;;
83245;SDS011;73140;46.754;17.714;2024-02-04T00:53:09;6.35;;;3.60;;
83245;SDS011;73140;46.754;17.714;2024-02-04T00:55:35;5.47;;;3.30;;
83245;SDS011;73140;46.754;17.714;2024-02-04T00:58:03;5.78;;;3.60;;
83245;SDS011;73140;46.754;17.714;2024-02-04T01:00:29;4.50;;;2.92;;
83245;SDS011;73140;46.754;17.714;2024-02-04T01:02:55;4.90;;;3.45;;
83245;SDS011;73140;46.754;17.714;2024-02-04T01:05:21;4.65;;;3.13;;
83245;SDS011;73140;46.754;17.714;2024-02-04T01:07:47;5.25;;;3.55;;
83245;SDS011;73140;46.754;17.714;2024-02-04T01:10:13;5.80;;;3.45;;
83245;SDS011;73140;46.754;17.714;2024-02-04T01:12:39;5.63;;;3.22;;
83245;SDS011;73140;46.754;17.714;2024-02-04T01:15:07;5.53;;;3.35;;
83245;SDS011;73140;46.754;17.714;2024-02-04T01:17:33;4.80;;;3.10;;
83245;SDS011;73140;46.754;17.714;2024-02-04T01:19:59;5.57;;;3.33;;
83245;SDS011;73140;46.754;17.714;2024-02-04T01:22:25;4.10;;;2.88;;
83245;SDS011;73140;46.754;17.714;2024-02-04T01:24:52;4.85;;;3.10;;
83245;SDS011;73140;46.754;17.714;2024-02-04T01:27:18;5.78;;;3.03;;
83245;SDS011;73140;46.754;17.714;2024-02-04T01:29:44;6.65;;;3.30;;
83245;SDS011;73140;46.754;17.714;2024-02-04T01:32:12;4.63;;;3.20;;
83245;SDS011;73140;46.754;17.714;2024-02-04T01:34:38;5.40;;;3.72;;
83245;SDS011;73140;46.754;17.714;2024-02-04T01:37:04;6.25;;;3.35;;
83245;SDS011;73140;46.754;17.714;2024-02-04T01:39:30;5.03;;;3.10;;
83245;SDS011;73140;46.754;17.714;2024-02-04T01:41:55;11.20;;;3.75;;
83245;SDS011;73140;46.754;17.714;2024-02-04T01:44:22;5.57;;;3.20;;
83245;SDS011;73140;46.754;17.714;2024-02-04T01:46:49;5.22;;;3.05;;
83245;SDS011;73140;46.754;17.714;2024-02-04T01:49:16;5.65;;;3.40;;
83245;SDS011;73140;46.754;17.714;2024-02-04T01:51:42;5.20;;;3.30;;
83245;SDS011;73140;46.754;17.714;2024-02-04T01:54:08;5.78;;;3.42;;
83245;SDS011;73140;46.754;17.714;2024-02-04T01:56:34;5.03;;;2.85;;
83245;SDS011;73140;46.754;17.714;2024-02-04T01:59:01;4.97;;;2.80;;
83245;SDS011;73140;46.754;17.714;2024-02-04T02:01:28;4.53;;;2.92;;
83245;SDS011;73140;46.754;17.714;2024-02-04T02:03:54;4.68;;;3.08;;
83245;SDS011;73140;46.754;17.714;2024-02-04T02:06:22;4.72;;;2.95;;
83245;SDS011;73140;46.754;17.714;2024-02-04T02:08:49;5.38;;;3.33;;
83245;SDS011;73140;46.754;17.714;2024-02-04T02:11:18;5.07;;;3.13;;
83245;SDS011;73140;46.754;17.714;2024-02-04T02:13:50;4.63;;;2.70;;
83245;SDS011;73140;46.754;17.714;2024-02-04T02:16:25;5.72;;;3.42;;
83245;SDS011;73140;46.754;17.714;2024-02-04T02:18:54;5.50;;;3.40;;
83245;SDS011;73140;46.754;17.714;2024-02-04T02:21:30;4.35;;;2.95;;
83245;SDS011;73140;46.754;17.714;2024-02-04T02:24:10;4.95;;;2.97;;
83245;SDS011;73140;46.754;17.714;2024-02-04T02:26:41;4.30;;;2.80;;
83245;SDS011;73140;46.754;17.714;2024-02-04T02:29:07;5.10;;;3.10;;
83245;SDS011;73140;46.754;17.714;2024-02-04T02:31:34;4.85;;;2.85;;
83245;SDS011;73140;46.754;17.714;2024-02-04T02:34:00;4.75;;;2.90;;
83245;SDS011;73140;46.754;17.714;2024-02-04T02:36:26;5.03;;;3.38;;
83245;SDS011;73140;46.754;17.714;2024-02-04T02:39:01;5.10;;;3.10;;
83245;SDS011;73140;46.754;17.714;2024-02-04T02:41:35;4.65;;;3.10;;
83245;SDS011;73140;46.754;17.714;2024-02-04T02:44:05;7.72;;;3.10;;
83245;SDS011;73140;46.754;17.714;2024-02-04T02:46:33;5.63;;;3.53;;
83245;SDS011;73140;46.754;17.714;2024-02-04T02:49:01;5.07;;;2.75;;
83245;SDS011;73140;46.754;17.714;2024-02-04T02:51:27;5.20;;;3.00;;
83245;SDS011;73140;46.754;17.714;2024-02-04T02:53:53;5.18;;;3.35;;
83245;SDS011;73140;46.754;17.714;2024-02-04T02:56:19;4.68;;;3.50;;
83245;SDS011;73140;46.754;17.714;2024-02-04T02:58:45;5.78;;;3.38;;
83245;SDS011;73140;46.754;17.714;2024-02-04T03:01:13;4.75;;;3.55;;
83245;SDS011;73140;46.754;17.714;2024-02-04T03:03:39;5.05;;;3.53;;
83245;SDS011;73140;46.754;17.714;2024-02-04T03:06:05;5.38;;;3.60;;
83245;SDS011;73140;46.754;17.714;2024-02-04T03:08:31;5.05;;;3.40;;
83245;SDS011;73140;46.754;17.714;2024-02-04T03:10:57;7.00;;;3.83;;
83245;SDS011;73140;46.754;17.714;2024-02-04T03:13:23;5.88;;;3.55;;
83245;SDS011;73140;46.754;17.714;2024-02-04T03:15:49;5.30;;;3.55;;
83245;SDS011;73140;46.754;17.714;2024-02-04T03:18:17;5.88;;;3.47;;
83245;SDS011;73140;46.754;17.714;2024-02-04T03:20:43;6.13;;;3.58;;
83245;SDS011;73140;46.754;17.714;2024-02-04T03:23:09;5.32;;;3.45;;
83245;SDS011;73140;46.754;17.714;2024-02-04T03:25:35;4.95;;;3.75;;
83245;SDS011;73140;46.754;17.714;2024-02-04T03:28:00;4.93;;;3.35;;
83245;SDS011;73140;46.754;17.714;2024-02-04T03:30:26;6.72;;;3.53;;
83245;SDS011;73140;46.754;17.714;2024-02-04T03:32:53;5.57;;;3.45;;
83245;SDS011;73140;46.754;17.714;2024-02-04T03:35:20;5.65;;;3.47;;
83245;SDS011;73140;46.754;17.714;2024-02-04T03:37:47;6.15;;;3.45;;
83245;SDS011;73140;46.754;17.714;2024-02-04T03:40:13;4.70;;;3.00;;
83245;SDS011;73140;46.754;17.714;2024-02-04T03:42:39;5.28;;;3.17;;
83245;SDS011;73140;46.754;17.714;2024-02-04T03:45:06;4.90;;;2.80;;
83245;SDS011;73140;46.754;17.714;2024-02-04T03:47:33;4.72;;;3.10;;
83245;SDS011;73140;46.754;17.714;2024-02-04T03:49:59;5.25;;;3.35;;
83245;SDS011;73140;46.754;17.714;2024-02-04T03:52:26;7.30;;;3.53;;
83245;SDS011;73140;46.754;17.714;2024-02-04T03:54:52;6.45;;;3.30;;
83245;SDS011;73140;46.754;17.714;2024-02-04T03:57:18;5.70;;;3.30;;
83245;SDS011;73140;46.754;17.714;2024-02-04T03:59:44;5.07;;;3.33;;
83245;SDS011;73140;46.754;17.714;2024-02-04T04:02:11;6.30;;;3.50;;
83245;SDS011;73140;46.754;17.714;2024-02-04T04:04:39;4.97;;;3.10;;
83245;SDS011;73140;46.754;17.714;2024-02-04T04:07:06;4.97;;;3.22;;
83245;SDS011;73140;46.754;17.714;2024-02-04T04:09:34;5.97;;;3.17;;
83245;SDS011;73140;46.754;17.714;2024-02-04T04:12:00;5.80;;;3.05;;
83245;SDS011;73140;46.754;17.714;2024-02-04T04:14:26;5.20;;;3.33;;
83245;SDS011;73140;46.754;17.714;2024-02-04T04:16:52;5.05;;;3.38;;
83245;SDS011;73140;46.754;17.714;2024-02-04T04:19:18;5.72;;;3.58;;
83245;SDS011;73140;46.754;17.714;2024-02-04T04:21:44;5.93;;;3.70;;
83245;SDS011;73140;46.754;17.714;2024-02-04T04:24:09;5.70;;;3.70;;
83245;SDS011;73140;46.754;17.714;2024-02-04T04:26:37;5.55;;;3.30;;
83245;SDS011;73140;46.754;17.714;2024-02-04T04:29:03;7.80;;;4.00;;
83245;SDS011;73140;46.754;17.714;2024-02-04T04:31:29;4.47;;;3.08;;
83245;SDS011;73140;46.754;17.714;2024-02-04T04:33:55;4.78;;;3.40;;
83245;SDS011;73140;46.754;17.714;2024-02-04T04:36:21;6.28;;;3.33;;
83245;SDS011;73140;46.754;17.714;2024-02-04T04:38:47;5.25;;;3.17;;
83245;SDS011;73140;46.754;17.714;2024-02-04T04:41:15;7.03;;;3.63;;
83245;SDS011;73140;46.754;17.714;2024-02-04T04:43:42;5.35;;;3.30;;
83245;SDS011;73140;46.754;17.714;2024-02-04T04:46:08;6.43;;;4.13;;
83245;SDS011;73140;46.754;17.714;2024-02-04T04:48:34;5.35;;;3.45;;
83245;SDS011;73140;46.754;17.714;2024-02-04T04:51:00;5.70;;;3.67;;
83245;SDS011;73140;46.754;17.714;2024-02-04T04:53:26;6.65;;;3.90;;
83245;SDS011;73140;46.754;17.714;2024-02-04T04:55:52;6.10;;;4.10;;
83245;SDS011;73140;46.754;17.714;2024-02-04T04:58:18;5.97;;;3.85;;
83245;SDS011;73140;46.754;17.714;2024-02-04T05:00:45;6.10;;;3.75;;
83245;SDS011;73140;46.754;17.714;2024-02-04T05:03:11;4.85;;;3.40;;
83245;SDS011;73140;46.754;17.714;2024-02-04T05:05:37;6.13;;;3.65;;
83245;SDS011;73140;46.754;17.714;2024-02-04T05:08:04;7.68;;;3.80;;
83245;SDS011;73140;46.754;17.714;2024-02-04T05:10:30;5.28;;;2.90;;
83245;SDS011;73140;46.754;17.714;2024-02-04T05:12:56;5.75;;;3.60;;
83245;SDS011;73140;46.754;17.714;2024-02-04T05:15:22;6.75;;;3.40;;
83245;SDS011;73140;46.754;17.714;2024-02-04T05:17:49;6.50;;;3.42;;
83245;SDS011;73140;46.754;17.714;2024-02-04T05:20:15;4.55;;;3.05;;
83245;SDS011;73140;46.754;17.714;2024-02-04T05:22:41;4.05;;;2.90;;
83245;SDS011;73140;46.754;17.714;2024-02-04T05:25:07;5.38;;;3.80;;
83245;SDS011;73140;46.754;17.714;2024-02-04T05:27:35;4.78;;;3.15;;
83245;SDS011;73140;46.754;17.714;2024-02-04T05:30:01;6.68;;;3.45;;
83245;SDS011;73140;46.754;17.714;2024-02-04T05:32:28;5.15;;;3.08;;
83245;SDS011;73140;46.754;17.714;2024-02-04T05:34:55;6.55;;;2.90;;
83245;SDS011;73140;46.754;17.714;2024-02-04T05:37:21;4.53;;;2.92;;
83245;SDS011;73140;46.754;17.714;2024-02-04T05:39:47;4.32;;;2.58;;
83245;SDS011;73140;46.754;17.714;2024-02-04T05:42:13;5.35;;;3.08;;
83245;SDS011;73140;46.754;17.714;2024-02-04T05:44:39;4.60;;;3.25;;
83245;SDS011;73140;46.754;17.714;2024-02-04T05:47:05;4.88;;;2.90;;
83245;SDS011;73140;46.754;17.714;2024-02-04T05:49:31;5.55;;;2.80;;
83245;SDS011;73140;46.754;17.714;2024-02-04T05:51:58;4.60;;;3.25;;
83245;SDS011;73140;46.754;17.714;2024-02-04T05:54:24;5.32;;;2.72;;
83245;SDS011;73140;46.754;17.714;2024-02-04T05:56:50;3.80;;;2.58;;
83245;SDS011;73140;46.754;17.714;2024-02-04T05:59:16;4.63;;;2.95;;
83245;SDS011;73140;46.754;17.714;2024-02-04T06:01:42;4.88;;;2.50;;
83245;SDS011;73140;46.754;17.714;2024-02-04T06:04:08;3.70;;;2.50;;
83245;SDS011;73140;46.754;17.714;2024-02-04T06:06:34;3.80;;;2.78;;
83245;SDS011;73140;46.754;17.714;2024-02-04T06:09:02;5.20;;;2.88;;
83245;SDS011;73140;46.754;17.714;2024-02-04T06:11:28;3.90;;;2.45;;
83245;SDS011;73140;46.754;17.714;2024-02-04T06:13:54;3.70;;;2.47;;
83245;SDS011;73140;46.754;17.714;2024-02-04T06:16:20;4.82;;;2.83;;
83245;SDS011;73140;46.754;17.714;2024-02-04T06:18:46;4.32;;;2.60;;
83245;SDS011;73140;46.754;17.714;2024-02-04T06:21:12;4.18;;;2.60;;
83245;SDS011;73140;46.754;17.714;2024-02-04T06:23:39;4.32;;;2.85;;
83245;SDS011;73140;46.754;17.714;2024-02-04T06:26:06;4.93;;;2.60;;
83245;SDS011;73140;46.754;17.714;2024-02-04T06:28:32;3.97;;;2.58;;
83245;SDS011;73140;46.754;17.714;2024-02-04T06:30:58;4.28;;;2.53;;
83245;SDS011;73140;46.754;17.714;2024-02-04T06:33:24;5.45;;;2.70;;
83245;SDS011;73140;46.754;17.714;2024-02-04T06:35:50;4.57;;;2.60;;
83245;SDS011;73140;46.754;17.714;2024-02-04T06:38:16;4.93;;;2.45;;
83245;SDS011;73140;46.754;17.714;2024-02-04T06:40:42;3.67;;;2.70;;
83245;SDS011;73140;46.754;17.714;2024-02-04T06:43:10;4.28;;;2.85;;
83245;SDS011;73140;46.754;17.714;2024-02-04T06:45:36;4.82;;;3.10;;
83245;SDS011;73140;46.754;17.714;2024-02-04T06:48:02;5.53;;;3.10;;
83245;SDS011;73140;46.754;17.714;2024-02-04T06:50:28;4.82;;;3.25;;
83245;SDS011;73140;46.754;17.714;2024-02-04T06:52:54;4.93;;;3.10;;
83245;SDS011;73140;46.754;17.714;2024-02-04T06:55:20;3.45;;;2.58;;
83245;SDS011;73140;46.754;17.714;2024-02-04T06:57:46;4.03;;;2.72;;
83245;SDS011;73140;46.754;17.714;2024-02-04T07:00:14;3.95;;;2.85;;
83245;SDS011;73140;46.754;17.714;2024-02-04T07:02:41;5.25;;;3.20;;
83245;SDS011;73140;46.754;17.714;2024-02-04T07:05:07;7.78;;;4.70;;
83245;SDS011;73140;46.754;17.714;2024-02-04T07:07:35;7.53;;;4.20;;
83245;SDS011;73140;46.754;17.714;2024-02-04T07:10:01;8.02;;;4.63;;
83245;SDS011;73140;46.754;17.714;2024-02-04T07:12:27;7.97;;;4.75;;
83245;SDS011;73140;46.754;17.714;2024-02-04T07:14:53;6.60;;;3.45;;
83245;SDS011;73140;46.754;17.714;2024-02-04T07:17:21;7.60;;;3.63;;
83245;SDS011;73140;46.754;17.714;2024-02-04T07:19:47;6.15;;;3.47;;
83245;SDS011;73140;46.754;17.714;2024-02-04T07:22:13;5.10;;;3.30;;
83245;SDS011;73140;46.754;17.714;2024-02-04T07:24:39;6.38;;;3.88;;
83245;SDS011;73140;46.754;17.714;2024-02-04T07:27:08;7.05;;;4.30;;
83245;SDS011;73140;46.754;17.714;2024-02-04T07:29:34;6.60;;;4.00;;
83245;SDS011;73140;46.754;17.714;2024-02-04T07:32:02;7.93;;;4.13;;
83245;SDS011;73140;46.754;17.714;2024-02-04T07:34:30;5.13;;;3.60;;
83245;SDS011;73140;46.754;17.714;2024-02-04T07:36:56;5.55;;;3.40;;
83245;SDS011;73140;46.754;17.714;2024-02-04T07:39:22;4.90;;;3.38;;
83245;SDS011;73140;46.754;17.714;2024-02-04T07:41:48;5.38;;;3.85;;
83245;SDS011;73140;46.754;17.714;2024-02-04T07:44:14;6.45;;;3.72;;
83245;SDS011;73140;46.754;17.714;2024-02-04T07:46:40;6.82;;;4.05;;
83245;SDS011;73140;46.754;17.714;2024-02-04T07:49:06;7.20;;;3.80;;
83245;SDS011;73140;46.754;17.714;2024-02-04T07:51:34;4.88;;;3.53;;
83245;SDS011;73140;46.754;17.714;2024-02-04T07:54:02;5.78;;;3.72;;
83245;SDS011;73140;46.754;17.714;2024-02-04T07:56:29;5.28;;;3.60;;
83245;SDS011;73140;46.754;17.714;2024-02-04T07:58:55;6.55;;;3.83;;
83245;SDS011;73140;46.754;17.714;2024-02-04T08:01:22;6.18;;;3.58;;
83245;SDS011;73140;46.754;17.714;2024-02-04T08:03:49;5.03;;;3.28;;
83245;SDS011;73140;46.754;17.714;2024-02-04T08:06:15;6.90;;;4.07;;
83245;SDS011;73140;46.754;17.714;2024-02-04T08:08:42;6.57;;;3.53;;
83245;SDS011;73140;46.754;17.714;2024-02-04T08:11:10;5.38;;;3.25;;
83245;SDS011;73140;46.754;17.714;2024-02-04T08:13:41;4.07;;;2.78;;
83245;SDS011;73140;46.754;17.714;2024-02-04T08:16:07;4.00;;;2.80;;
83245;SDS011;73140;46.754;17.714;2024-02-04T08:18:33;5.35;;;3.42;;
83245;SDS011;73140;46.754;17.714;2024-02-04T08:20:59;6.05;;;3.53;;
83245;SDS011;73140;46.754;17.714;2024-02-04T08:23:25;5.75;;;3.40;;
83245;SDS011;73140;46.754;17.714;2024-02-04T08:25:52;4.93;;;3.25;;
83245;SDS011;73140;46.754;17.714;2024-02-04T08:28:18;5.82;;;3.88;;
83245;SDS011;73140;46.754;17.714;2024-02-04T08:30:45;5.60;;;3.53;;
83245;SDS011;73140;46.754;17.714;2024-02-04T08:33:10;5.53;;;3.83;;
83245;SDS011;73140;46.754;17.714;2024-02-04T08:35:37;5.03;;;3.50;;
83245;SDS011;73140;46.754;17.714;2024-02-04T08:38:03;5.68;;;3.10;;
83245;SDS011;73140;46.754;17.714;2024-02-04T08:40:29;5.50;;;2.88;;
83245;SDS011;73140;46.754;17.714;2024-02-04T08:42:56;5.38;;;2.63;;
83245;SDS011;73140;46.754;17.714;2024-02-04T08:45:22;3.90;;;2.53;;
83245;SDS011;73140;46.754;17.714;2024-02-04T08:47:48;3.60;;;2.53;;
83245;SDS011;73140;46.754;17.714;2024-02-04T08:50:14;4.13;;;2.45;;
83245;SDS011;73140;46.754;17.714;2024-02-04T08:52:43;3.15;;;2.00;;
83245;SDS011;73140;46.754;17.714;2024-02-04T08:55:09;3.40;;;1.95;;
83245;SDS011;73140;46.754;17.714;2024-02-04T08:57:35;4.25;;;2.20;;
83245;SDS011;73140;46.754;17.714;2024-02-04T09:00:03;2.83;;;1.90;;
83245;SDS011;73140;46.754;17.714;2024-02-04T09:02:29;2.80;;;1.95;;
83245;SDS011;73140;46.754;17.714;2024-02-04T09:04:56;4.60;;;2.28;;
83245;SDS011;73140;46.754;17.714;2024-02-04T09:07:25;3.13;;;2.00;;
83245;SDS011;73140;46.754;17.714;2024-02-04T09:09:51;2.97;;;2.20;;
83245;SDS011;73140;46.754;17.714;2024-02-04T09:12:17;3.25;;;1.95;;
83245;SDS011;73140;46.754;17.714;2024-02-04T09:14:43;3.47;;;2.00;;
83245;SDS011;73140;46.754;17.714;2024-02-04T09:17:11;3.30;;;2.17;;
83245;SDS011;73140;46.754;17.714;2024-02-04T09:19:38;4.32;;;2.38;;
83245;SDS011;73140;46.754;17.714;2024-02-04T09:22:04;3.78;;;2.08;;
83245;SDS011;73140;46.754;17.714;2024-02-04T09:24:30;4.07;;;2.17;;
83245;SDS011;73140;46.754;17.714;2024-02-04T09:26:57;3.20;;;2.10;;
83245;SDS011;73140;46.754;17.714;2024-02-04T09:29:23;3.58;;;2.58;;
83245;SDS011;73140;46.754;17.714;2024-02-04T09:31:49;4.53;;;2.70;;
83245;SDS011;73140;46.754;17.714;2024-02-04T09:34:18;4.28;;;3.10;;
83245;SDS011;73140;46.754;17.714;2024-02-04T09:36:44;4.97;;;3.35;;
83245;SDS011;73140;46.754;17.714;2024-02-04T09:39:10;4.72;;;3.45;;
83245;SDS011;73140;46.754;17.714;2024-02-04T09:41:36;5.90;;;3.90;;
83245;SDS011;73140;46.754;17.714;2024-02-04T09:44:02;6.20;;;3.83;;
83245;SDS011;73140;46.754;17.714;2024-02-04T09:46:31;6.88;;;4.20;;
83245;SDS011;73140;46.754;17.714;2024-02-04T09:48:57;4.63;;;3.20;;
83245;SDS011;73140;46.754;17.714;2024-02-04T09:51:26;5.28;;;3.03;;
83245;SDS011;73140;46.754;17.714;2024-02-04T09:53:53;4.60;;;3.17;;
83245;SDS011;73140;46.754;17.714;2024-02-04T09:56:22;5.45;;;3.45;;
83245;SDS011;73140;46.754;17.714;2024-02-04T09:58:50;5.28;;;3.00;;
83245;SDS011;73140;46.754;17.714;2024-02-04T10:01:18;4.38;;;2.47;;
83245;SDS011;73140;46.754;17.714;2024-02-04T10:03:46;4.35;;;2.72;;
83245;SDS011;73140;46.754;17.714;2024-02-04T10:06:12;4.72;;;2.65;;
83245;SDS011;73140;46.754;17.714;2024-02-04T10:08:40;4.05;;;2.40;;
83245;SDS011;73140;46.754;17.714;2024-02-04T10:11:08;4.20;;;2.88;;
83245;SDS011;73140;46.754;17.714;2024-02-04T10:13:41;4.53;;;2.83;;
83245;SDS011;73140;46.754;17.714;2024-02-04T10:16:09;5.03;;;3.28;;
83245;SDS011;73140;46.754;17.714;2024-02-04T10:18:35;4.25;;;2.90;;
83245;SDS011;73140;46.754;17.714;2024-02-04T10:21:01;4.85;;;3.22;;
83245;SDS011;73140;46.754;17.714;2024-02-04T10:23:27;5.15;;;3.17;;
83245;SDS011;73140;46.754;17.714;2024-02-04T10:25:58;5.88;;;3.65;;
83245;SDS011;73140;46.754;17.714;2024-02-04T10:28:24;4.47;;;2.88;;
83245;SDS011;73140;46.754;17.714;2024-02-04T10:30:50;4.10;;;2.85;;
83245;SDS011;73140;46.754;17.714;2024-02-04T10:33:16;4.38;;;3.10;;
83245;SDS011;73140;46.754;17.714;2024-02-04T10:35:42;4.57;;;2.80;;
83245;SDS011;73140;46.754;17.714;2024-02-04T10:38:08;5.80;;;3.10;;
83245;SDS011;73140;46.754;17.714;2024-02-04T10:40:36;3.58;;;2.63;;
83245;SDS011;73140;46.754;17.714;2024-02-04T10:43:04;3.65;;;2.70;;
83245;SDS011;73140;46.754;17.714;2024-02-04T10:45:32;3.88;;;2.60;;
83245;SDS011;73140;46.754;17.714;2024-02-04T10:48:03;4.13;;;2.70;;
83245;SDS011;73140;46.754;17.714;2024-02-04T10:50:32;4.18;;;2.80;;
83245;SDS011;73140;46.754;17.714;2024-02-04T10:53:01;4.82;;;2.58;;
83245;SDS011;73140;46.754;17.714;2024-02-04T10:55:30;4.25;;;2.72;;
83245;SDS011;73140;46.754;17.714;2024-02-04T10:57:58;3.97;;;1.90;;
83245;SDS011;73140;46.754;17.714;2024-02-04T11:00:26;3.13;;;1.95;;
83245;SDS011;73140;46.754;17.714;2024-02-04T11:02:53;3.13;;;2.00;;
83245;SDS011;73140;46.754;17.714;2024-02-04T11:05:20;2.42;;;1.70;;
83245;SDS011;73140;46.754;17.714;2024-02-04T11:07:48;2.50;;;1.40;;
83245;SDS011;73140;46.754;17.714;2024-02-04T11:10:16;2.65;;;2.00;;
83245;SDS011;73140;46.754;17.714;2024-02-04T11:12:44;2.67;;;1.70;;
83245;SDS011;73140;46.754;17.714;2024-02-04T11:15:12;2.67;;;1.88;;
83245;SDS011;73140;46.754;17.714;2024-02-04T11:17:56;3.70;;;2.17;;
83245;SDS011;73140;46.754;17.714;2024-02-04T11:20:40;4.47;;;1.80;;
83245;SDS011;73140;46.754;17.714;2024-02-04T11:23:25;4.30;;;1.90;;
83245;SDS011;73140;46.754;17.714;2024-02-04T11:26:02;3.22;;;2.15;;
83245;SDS011;73140;46.754;17.714;2024-02-04T11:28:31;3.90;;;1.60;;
83245;SDS011;73140;46.754;17.714;2024-02-04T11:30:57;2.90;;;1.50;;
83245;SDS011;73140;46.754;17.714;2024-02-04T11:33:24;3.28;;;1.65;;
83245;SDS011;73140;46.754;17.714;2024-02-04T11:35:59;2.97;;;1.60;;
83245;SDS011;73140;46.754;17.714;2024-02-04T11:38:29;2.40;;;1.42;;
83245;SDS011;73140;46.754;17.714;2024-02-04T11:40:57;3.22;;;1.50;;
83245;SDS011;73140;46.754;17.714;2024-02-04T11:43:23;2.90;;;1.25;;
83245;SDS011;73140;46.754;17.714;2024-02-04T11:45:51;2.60;;;1.50;;
83245;SDS011;73140;46.754;17.714;2024-02-04T11:48:18;3.25;;;1.70;;
83245;SDS011;73140;46.754;17.714;2024-02-04T11:50:53;2.75;;;1.95;;
83245;SDS011;73140;46.754;17.714;2024-02-04T11:53:19;3.38;;;2.20;;
83245;SDS011;73140;46.754;17.714;2024-02-04T11:55:45;4.53;;;2.40;;
83245;SDS011;73140;46.754;17.714;2024-02-04T11:58:12;3.78;;;2.45;;
83245;SDS011;73140;46.754;17.714;2024-02-04T12:00:41;3.85;;;2.55;;
83245;SDS011;73140;46.754;17.714;2024-02-04T12:03:08;4.07;;;2.60;;
83245;SDS011;73140;46.754;17.714;2024-02-04T12:05:35;4.13;;;2.80;;
83245;SDS011;73140;46.754;17.714;2024-02-04T12:08:03;3.55;;;2.65;;
83245;SDS011;73140;46.754;17.714;2024-02-04T12:10:31;6.35;;;2.97;;
83245;SDS011;73140;46.754;17.714;2024-02-04T12:12:58;3.47;;;2.60;;
83245;SDS011;73140;46.754;17.714;2024-02-04T12:15:25;5.53;;;3.03;;
83245;SDS011;73140;46.754;17.714;2024-02-04T12:17:51;3.53;;;2.17;;
83245;SDS011;73140;46.754;17.714;2024-02-04T12:20:17;3.30;;;2.53;;
83245;SDS011;73140;46.754;17.714;2024-02-04T12:22:43;3.70;;;2.40;;
83245;SDS011;73140;46.754;17.714;2024-02-04T12:25:10;4.15;;;2.45;;
83245;SDS011;73140;46.754;17.714;2024-02-04T12:27:36;2.88;;;1.70;;
83245;SDS011;73140;46.754;17.714;2024-02-04T12:30:03;2.90;;;1.88;;
83245;SDS011;73140;46.754;17.714;2024-02-04T12:32:30;3.47;;;2.45;;
83245;SDS011;73140;46.754;17.714;2024-02-04T12:34:56;5.50;;;2.65;;
83245;SDS011;73140;46.754;17.714;2024-02-04T12:37:22;4.28;;;2.97;;
83245;SDS011;73140;46.754;17.714;2024-02-04T12:39:49;3.33;;;2.35;;
83245;SDS011;73140;46.754;17.714;2024-02-04T12:42:17;4.82;;;2.67;;
83245;SDS011;73140;46.754;17.714;2024-02-04T12:44:46;4.65;;;2.53;;
83245;SDS011;73140;46.754;17.714;2024-02-04T12:47:12;4.15;;;2.70;;
83245;SDS011;73140;46.754;17.714;2024-02-04T12:49:38;3.38;;;2.40;;
83245;SDS011;73140;46.754;17.714;2024-02-04T12:52:04;4.22;;;2.40;;
83245;SDS011;73140;46.754;17.714;2024-02-04T12:54:39;3.95;;;2.10;;
83245;SDS011;73140;46.754;17.714;2024-02-04T12:57:06;2.33;;;1.55;;
83245;SDS011;73140;46.754;17.714;2024-02-04T12:59:34;2.58;;;2.00;;
83245;SDS011;73140;46.754;17.714;2024-02-04T13:02:00;3.30;;;2.20;;
83245;SDS011;73140;46.754;17.714;2024-02-04T13:04:32;3.95;;;2.20;;
83245;SDS011;73140;46.754;17.714;2024-02-04T13:06:59;4.28;;;2.50;;
83245;SDS011;73140;46.754;17.714;2024-02-04T13:09:25;3.45;;;2.30;;
83245;SDS011;73140;46.754;17.714;2024-02-04T13:11:51;3.50;;;2.53;;
83245;SDS011;73140;46.754;17.714;2024-02-04T13:14:17;3.42;;;2.53;;
83245;SDS011;73140;46.754;17.714;2024-02-04T13:16:44;5.03;;;3.25;;
83245;SDS011;73140;46.754;17.714;2024-02-04T13:19:10;8.13;;;3.83;;
83245;SDS011;73140;46.754;17.714;2024-02-04T13:21:36;4.75;;;3.35;;
83245;SDS011;73140;46.754;17.714;2024-02-04T13:24:02;6.88;;;4.30;;
83245;SDS011;73140;46.754;17.714;2024-02-04T13:26:28;5.68;;;3.47;;
83245;SDS011;73140;46.754;17.714;2024-02-04T13:28:54;5.35;;;3.47;;
83245;SDS011;73140;46.754;17.714;2024-02-04T13:31:20;5.35;;;3.40;;
83245;SDS011;73140;46.754;17.714;2024-02-04T13:33:48;6.22;;;3.60;;
83245;SDS011;73140;46.754;17.714;2024-02-04T13:36:14;3.92;;;2.85;;
83245;SDS011;73140;46.754;17.714;2024-02-04T13:38:40;5.72;;;3.05;;
83245;SDS011;73140;46.754;17.714;2024-02-04T13:41:06;4.53;;;3.05;;
83245;SDS011;73140;46.754;17.714;2024-02-04T13:43:33;3.85;;;2.70;;
83245;SDS011;73140;46.754;17.714;2024-02-04T13:45:59;4.22;;;3.30;;
83245;SDS011;73140;46.754;17.714;2024-02-04T13:48:25;4.72;;;2.95;;
83245;SDS011;73140;46.754;17.714;2024-02-04T13:50:52;4.45;;;3.20;;
83245;SDS011;73140;46.754;17.714;2024-02-04T13:53:21;7.50;;;4.10;;
83245;SDS011;73140;46.754;17.714;2024-02-04T13:55:47;7.75;;;4.45;;
83245;SDS011;73140;46.754;17.714;2024-02-04T13:58:14;6.80;;;4.45;;
83245;SDS011;73140;46.754;17.714;2024-02-04T14:00:40;6.57;;;4.35;;
83245;SDS011;73140;46.754;17.714;2024-02-04T14:03:06;7.25;;;4.85;;
83245;SDS011;73140;46.754;17.714;2024-02-04T14:05:32;6.75;;;4.38;;
83245;SDS011;73140;46.754;17.714;2024-02-04T14:08:00;7.05;;;4.70;;
83245;SDS011;73140;46.754;17.714;2024-02-04T14:10:26;6.88;;;4.68;;
83245;SDS011;73140;46.754;17.714;2024-02-04T14:12:52;6.85;;;4.57;;
83245;SDS011;73140;46.754;17.714;2024-02-04T14:15:18;6.32;;;4.68;;
83245;SDS011;73140;46.754;17.714;2024-02-04T14:17:44;8.02;;;4.97;;
83245;SDS011;73140;46.754;17.714;2024-02-04T14:20:10;6.47;;;4.50;;
83245;SDS011;73140;46.754;17.714;2024-02-04T14:22:36;7.72;;;4.85;;
83245;SDS011;73140;46.754;17.714;2024-02-04T14:25:04;8.48;;;5.28;;
83245;SDS011;73140;46.754;17.714;2024-02-04T14:27:31;13.88;;;5.28;;
83245;SDS011;73140;46.754;17.714;2024-02-04T14:29:57;7.50;;;5.18;;
83245;SDS011;73140;46.754;17.714;2024-02-04T14:32:23;8.68;;;5.55;;